Time;durP1;ratioP1;P1;durP2;ratioP2;P2;SDS_P1;SDS_P2;PMS_P1;PMS_P2;Temp;Humidity;BMP_temperature;BMP_pressure;BME280_temperature;BME280_humidity;BME280_pressure;Samples;Min_cycle;Max_cycle;Signal;HPM_P1;HPM_P2
2022/05/21 16:28:25;;;;;;;5.20;1.20;;;;;;;;;;4921993;29;20154;-86
2022/05/21 16:30:59;;;;;;;9.45;1.50;;;;;;;;;;4921188;29;20048;-85
2022/05/21 16:33:26;;;;;;;6.60;1.25;;;;;;;;;;4926733;29;20140;-85
2022/05/21 16:35:53;;;;;;;4.05;1.27;;;;;;;;;;4926178;29;20126;-86
2022/05/21 16:38:18;;;;;;;7.00;1.40;;;;;;;;;;4906974;29;20381;-87
2022/05/21 16:40:44;;;;;;;4.50;1.23;;;;;;;;;;4927134;29;20048;-80
2022/05/21 16:43:09;;;;;;;7.78;1.40;;;;;;;;;;4920758;29;20047;-84
2022/05/21 16:45:34;;;;;;;6.05;1.38;;;;;;;;;;4914071;29;20063;-83
2022/05/21 16:48:00;;;;;;;8.25;1.83;;;;;;;;;;4930955;29;20066;-87
2022/05/21 16:50:25;;;;;;;9.32;1.98;;;;;;;;;;4929165;29;20603;-86
2022/05/21 16:52:51;;;;;;;8.77;1.40;;;;;;;;;;4921371;29;20048;-87
2022/05/21 16:55:17;;;;;;;10.10;1.90;;;;;;;;;;4923526;29;20052;-83
2022/05/21 16:57:43;;;;;;;6.05;1.25;;;;;;;;;;4921474;29;20053;-85
2022/05/21 17:00:10;;;;;;;6.18;1.55;;;;;;;;;;4924543;29;20039;-83
2022/05/21 17:02:36;;;;;;;8.25;1.50;;;;;;;;;;4918860;29;20067;-84
2022/05/21 17:05:02;;;;;;;10.68;1.48;;;;;;;;;;4919100;29;20070;-84
2022/05/21 17:07:31;;;;;;;6.00;1.55;;;;;;;;;;4923585;29;20070;-85
2022/05/21 17:09:57;;;;;;;6.13;1.20;;;;;;;;;;4930813;29;20142;-86
2022/05/21 17:12:22;;;;;;;8.40;1.52;;;;;;;;;;4923980;29;20135;-79
2022/05/21 17:14:49;;;;;;;7.28;1.75;;;;;;;;;;4929981;29;20103;-83
2022/05/21 17:17:14;;;;;;;9.50;1.60;;;;;;;;;;4929617;29;20075;-85
2022/05/21 17:19:40;;;;;;;10.20;1.60;;;;;;;;;;4928289;29;20080;-85
2022/05/21 17:22:17;;;;;;;6.00;1.35;;;;;;;;;;4925286;29;20126;-84
2022/05/21 17:24:43;;;;;;;7.75;1.40;;;;;;;;;;4927159;29;20579;-85
2022/05/21 17:32:51;;;;;;;9.40;1.60;;;;;;;;;;4929539;29;20497;-85
2022/05/21 17:35:18;;;;;;;8.23;1.67;;;;;;;;;;4927886;29;20083;-86
2022/05/21 17:37:44;;;;;;;7.78;1.50;;;;;;;;;;4925047;29;20138;-84
2022/05/21 17:40:10;;;;;;;6.18;1.50;;;;;;;;;;4923320;29;20143;-84
2022/05/21 17:42:36;;;;;;;9.38;2.03;;;;;;;;;;4924443;29;20051;-85
2022/05/21 17:45:01;;;;;;;7.78;1.50;;;;;;;;;;4930047;29;20043;-85
2022/05/21 17:47:27;;;;;;;7.43;1.58;;;;;;;;;;4910868;29;20043;-85
2022/05/21 17:49:52;;;;;;;12.15;1.73;;;;;;;;;;4929883;29;20048;-85
2022/05/21 17:52:19;;;;;;;5.95;1.80;;;;;;;;;;4924387;29;20059;-84
2022/05/21 17:54:47;;;;;;;9.50;1.42;;;;;;;;;;4930375;29;20555;-85
2022/05/21 17:57:13;;;;;;;10.00;1.63;;;;;;;;;;4921871;29;20071;-86
2022/05/21 17:59:38;;;;;;;6.82;1.55;;;;;;;;;;4929367;29;20142;-84
2022/05/21 18:02:03;;;;;;;7.90;1.73;;;;;;;;;;4903995;29;20040;-84
2022/05/21 18:04:30;;;;;;;9.43;1.50;;;;;;;;;;4905927;29;20051;-85
2022/05/21 18:06:56;;;;;;;5.07;1.40;;;;;;;;;;4900282;29;20135;-84
2022/05/21 18:09:21;;;;;;;7.10;1.70;;;;;;;;;;4910394;29;20142;-82
2022/05/21 18:11:47;;;;;;;6.38;1.63;;;;;;;;;;4909198;29;20044;-89
2022/05/21 18:14:12;;;;;;;7.82;1.50;;;;;;;;;;4910077;29;20496;-89
2022/05/21 18:19:23;;;;;;;7.50;2.10;;;;;;;;;;4911377;29;20040;-87
2022/05/21 18:21:50;;;;;;;7.85;1.90;;;;;;;;;;4909102;29;20052;-88
2022/05/21 18:24:18;;;;;;;11.15;3.20;;;;;;;;;;4908881;29;20040;-88
2022/05/21 18:26:43;;;;;;;10.40;4.57;;;;;;;;;;4908840;29;20055;-88
2022/05/21 18:29:08;;;;;;;8.13;2.60;;;;;;;;;;4912367;29;20052;-86
2022/05/21 18:31:34;;;;;;;10.20;1.85;;;;;;;;;;4919573;29;20052;-89
2022/05/21 18:34:02;;;;;;;7.18;1.50;;;;;;;;;;4912962;29;20478;-88
2022/05/21 18:36:29;;;;;;;11.20;1.88;;;;;;;;;;4910195;29;20036;-89
2022/05/21 18:38:55;;;;;;;12.85;1.80;;;;;;;;;;4911442;29;20052;-80
2022/05/21 18:41:23;;;;;;;6.03;2.20;;;;;;;;;;4905092;29;20804;-81
2022/05/21 18:43:50;;;;;;;7.35;1.90;;;;;;;;;;4904517;29;20291;-81
2022/05/21 18:46:23;;;;;;;7.80;2.10;;;;;;;;;;4907892;29;20040;-81
2022/05/21 18:48:49;;;;;;;11.48;3.08;;;;;;;;;;4898759;29;20052;-82
2022/05/21 18:51:18;;;;;;;10.40;2.30;;;;;;;;;;4907173;29;20059;-83
2022/05/21 18:53:44;;;;;;;;;;;;;;;;;;4906258;29;20057;-81
